Elm Springs, Arkansas
Current Conditions -  °F | °C
As of 4:53 AM on Sunday 26 Oct 2014 (Local Time) from KXNA Reporting Station
Moderate Fog Moderate Fog  
Wind Chill: 56°   Ceiling: 400
Heat Index: 56°   Visibility: 0.5mi
Dew Point: 55°   Wind: 0mph
Humidity: 97%   Direction: NA
Pressure: 30.01"   Gusts: NA
Location:  36.21°N, 94.23°W
Report Text: KXNA 260953Z AUTO 00000KT 1/2SM R17/P6000FT FG VV004 13/13 A3001 RMK AO2 SLP150 T01330128
Loading
Personal Weather Stations






























Interactive Weather Map
Tropical Storm Tracking
New forecast layout! Learn more

10-Day Weather Forecast

Advertisements
Track Severe Weather on mobile